Brejinho de Nazare, Brazil
Current Conditions -  °F | °C
As of 6:00 PM on Tuesday 21 Oct 2014 (Local Time) from SBPJ Reporting Station
Thunderstorm Thunderstorm  
Wind Chill: 84°   Ceiling: Unl
Heat Index: 88°   Visibility: 6mi
Dew Point: 70°   Wind: 17mph
Humidity: 62%   Direction: 330°NNW
Pressure: 29.83"   Gusts: 29mph
Location:  11°S, 48.57°W
Report Text: SBPJ 212100Z 33015G25KT 9999 TS SCT030 FEW035CB 29/21 Q1010
Loading
Personal Weather Stations






























Interactive Weather Map
Tropical Storm Tracking
New forecast layout! Learn more

10-Day Weather Forecast

Advertisements
Track Severe Weather on mobile